sensor_id;sensor_type;location;lat;lon;timestamp;pressure;altitude;pressure_sealevel;temperature;humidity
46876;BME280;32866;50.160;14.768;2023-04-19T00:02:17;99971.03;;;8.92;100.00
46876;BME280;32866;50.160;14.768;2023-04-19T00:04:43;99977.25;;;8.93;100.00
46876;BME280;32866;50.160;14.768;2023-04-19T00:07:09;99966.06;;;8.83;100.00
46876;BME280;32866;50.160;14.768;2023-04-19T00:09:35;99932.38;;;8.63;100.00
46876;BME280;32866;50.160;14.768;2023-04-19T00:12:00;99947.13;;;8.69;100.00
46876;BME280;32866;50.160;14.768;2023-04-19T00:14:26;99941.25;;;8.70;100.00
46876;BME280;32866;50.160;14.768;2023-04-19T00:16:51;99921.91;;;8.58;100.00
46876;BME280;32866;50.160;14.768;2023-04-19T00:19:17;99917.59;;;8.60;100.00
46876;BME280;32866;50.160;14.768;2023-04-19T00:21:42;99929.91;;;8.72;100.00
46876;BME280;32866;50.160;14.768;2023-04-19T00:24:07;99952.00;;;8.85;100.00
46876;BME280;32866;50.160;14.768;2023-04-19T00:26:33;99939.22;;;8.78;100.00
46876;BME280;32866;50.160;14.768;2023-04-19T00:28:58;99911.03;;;8.54;100.00
46876;BME280;32866;50.160;14.768;2023-04-19T00:31:23;99916.44;;;8.58;100.00
46876;BME280;32866;50.160;14.768;2023-04-19T00:33:49;99929.59;;;8.66;100.00
46876;BME280;32866;50.160;14.768;2023-04-19T00:36:14;99908.63;;;8.60;100.00
46876;BME280;32866;50.160;14.768;2023-04-19T00:38:40;99905.53;;;8.58;100.00
46876;BME280;32866;50.160;14.768;2023-04-19T00:41:05;99899.81;;;8.48;100.00
46876;BME280;32866;50.160;14.768;2023-04-19T00:43:31;99920.09;;;8.75;100.00
46876;BME280;32866;50.160;14.768;2023-04-19T00:45:56;99926.75;;;9.01;100.00
46876;BME280;32866;50.160;14.768;2023-04-19T00:48:22;99913.91;;;8.98;100.00
46876;BME280;32866;50.160;14.768;2023-04-19T00:50:48;99907.69;;;8.97;100.00
46876;BME280;32866;50.160;14.768;2023-04-19T00:53:14;99881.91;;;8.71;100.00
46876;BME280;32866;50.160;14.768;2023-04-19T00:55:39;99910.53;;;8.90;100.00
46876;BME280;32866;50.160;14.768;2023-04-19T00:58:06;99905.56;;;8.81;100.00
46876;BME280;32866;50.160;14.768;2023-04-19T01:00:32;99899.41;;;8.77;100.00
46876;BME280;32866;50.160;14.768;2023-04-19T01:02:58;99902.91;;;8.78;100.00
46876;BME280;32866;50.160;14.768;2023-04-19T01:05:23;99891.03;;;8.61;100.00
46876;BME280;32866;50.160;14.768;2023-04-19T01:07:48;99856.00;;;8.56;100.00
46876;BME280;32866;50.160;14.768;2023-04-19T01:10:14;99857.28;;;8.47;100.00
46876;BME280;32866;50.160;14.768;2023-04-19T01:12:39;99892.91;;;8.67;100.00
46876;BME280;32866;50.160;14.768;2023-04-19T01:15:05;99894.03;;;8.70;100.00
46876;BME280;32866;50.160;14.768;2023-04-19T01:17:31;99881.44;;;8.76;100.00
46876;BME280;32866;50.160;14.768;2023-04-19T01:20:00;99882.72;;;8.68;100.00
46876;BME280;32866;50.160;14.768;2023-04-19T01:22:26;99881.63;;;8.65;100.00
46876;BME280;32866;50.160;14.768;2023-04-19T01:24:52;99882.97;;;8.53;100.00
46876;BME280;32866;50.160;14.768;2023-04-19T01:27:18;99851.81;;;8.47;100.00
46876;BME280;32866;50.160;14.768;2023-04-19T01:29:44;99873.19;;;8.80;100.00
46876;BME280;32866;50.160;14.768;2023-04-19T01:32:09;99848.88;;;8.62;100.00
46876;BME280;32866;50.160;14.768;2023-04-19T01:34:37;99855.19;;;8.59;100.00
46876;BME280;32866;50.160;14.768;2023-04-19T01:37:02;99849.03;;;8.51;100.00
46876;BME280;32866;50.160;14.768;2023-04-19T01:39:27;99857.78;;;8.66;100.00
46876;BME280;32866;50.160;14.768;2023-04-19T01:41:53;99863.19;;;8.69;100.00
46876;BME280;32866;50.160;14.768;2023-04-19T01:44:18;99852.19;;;8.77;100.00
46876;BME280;32866;50.160;14.768;2023-04-19T01:46:44;99854.34;;;8.62;100.00
46876;BME280;32866;50.160;14.768;2023-04-19T01:49:09;99856.75;;;8.83;100.00
46876;BME280;32866;50.160;14.768;2023-04-19T01:51:36;99852.94;;;8.77;100.00
46876;BME280;32866;50.160;14.768;2023-04-19T01:54:02;99866.59;;;8.77;100.00
46876;BME280;32866;50.160;14.768;2023-04-19T01:56:27;99847.34;;;8.61;100.00
46876;BME280;32866;50.160;14.768;2023-04-19T01:58:53;99832.75;;;8.44;100.00
46876;BME280;32866;50.160;14.768;2023-04-19T02:01:18;99813.84;;;8.26;100.00
46876;BME280;32866;50.160;14.768;2023-04-19T02:03:43;99844.34;;;8.51;100.00
46876;BME280;32866;50.160;14.768;2023-04-19T02:06:12;99843.69;;;8.44;100.00
46876;BME280;32866;50.160;14.768;2023-04-19T02:08:39;99847.19;;;8.44;100.00
46876;BME280;32866;50.160;14.768;2023-04-19T02:11:06;99846.88;;;8.66;100.00
46876;BME280;32866;50.160;14.768;2023-04-19T02:13:31;99821.59;;;8.31;100.00
46876;BME280;32866;50.160;14.768;2023-04-19T02:15:57;99831.16;;;8.46;100.00
46876;BME280;32866;50.160;14.768;2023-04-19T02:18:22;99821.78;;;8.47;100.00
46876;BME280;32866;50.160;14.768;2023-04-19T02:20:48;99834.44;;;8.61;100.00
46876;BME280;32866;50.160;14.768;2023-04-19T02:23:14;99836.34;;;8.64;100.00
46876;BME280;32866;50.160;14.768;2023-04-19T02:25:39;99826.88;;;8.45;100.00
46876;BME280;32866;50.160;14.768;2023-04-19T02:28:05;99816.94;;;8.28;100.00
46876;BME280;32866;50.160;14.768;2023-04-19T02:30:30;99820.88;;;8.27;100.00
46876;BME280;32866;50.160;14.768;2023-04-19T02:32:56;99794.91;;;8.15;100.00
46876;BME280;32866;50.160;14.768;2023-04-19T02:35:22;99808.84;;;8.21;100.00
46876;BME280;32866;50.160;14.768;2023-04-19T02:37:48;99823.09;;;8.35;100.00
46876;BME280;32866;50.160;14.768;2023-04-19T02:40:13;99816.94;;;8.28;100.00
46876;BME280;32866;50.160;14.768;2023-04-19T02:42:38;99816.59;;;8.26;100.00
46876;BME280;32866;50.160;14.768;2023-04-19T02:45:04;99796.00;;;8.21;100.00
46876;BME280;32866;50.160;14.768;2023-04-19T02:47:30;99779.56;;;8.25;100.00
46876;BME280;32866;50.160;14.768;2023-04-19T02:49:55;99768.47;;;8.08;100.00
46876;BME280;32866;50.160;14.768;2023-04-19T02:52:21;99772.31;;;8.11;100.00
46876;BME280;32866;50.160;14.768;2023-04-19T02:54:47;99788.47;;;8.29;100.00
46876;BME280;32866;50.160;14.768;2023-04-19T02:57:12;99752.81;;;8.12;100.00
46876;BME280;32866;50.160;14.768;2023-04-19T02:59:37;99744.47;;;7.96;100.00
46876;BME280;32866;50.160;14.768;2023-04-19T03:02:03;99785.44;;;8.23;100.00
46876;BME280;32866;50.160;14.768;2023-04-19T03:04:28;99779.69;;;8.14;100.00
46876;BME280;32866;50.160;14.768;2023-04-19T03:06:55;99743.41;;;7.90;100.00
46876;BME280;32866;50.160;14.768;2023-04-19T03:09:20;99784.69;;;8.19;100.00
46876;BME280;32866;50.160;14.768;2023-04-19T03:11:46;99778.19;;;8.13;100.00
46876;BME280;32866;50.160;14.768;2023-04-19T03:14:11;99782.28;;;8.25;100.00
46876;BME280;32866;50.160;14.768;2023-04-19T03:16:36;99774.47;;;8.27;100.00
46876;BME280;32866;50.160;14.768;2023-04-19T03:19:02;99779.97;;;8.23;100.00
46876;BME280;32866;50.160;14.768;2023-04-19T03:21:27;99777.25;;;8.23;100.00
46876;BME280;32866;50.160;14.768;2023-04-19T03:23:54;99770.63;;;8.21;100.00
46876;BME280;32866;50.160;14.768;2023-04-19T03:26:19;99730.47;;;7.94;100.00
46876;BME280;32866;50.160;14.768;2023-04-19T03:28:44;99769.94;;;8.16;100.00
46876;BME280;32866;50.160;14.768;2023-04-19T03:31:10;99749.03;;;8.06;100.00
46876;BME280;32866;50.160;14.768;2023-04-19T03:33:36;99748.91;;;8.13;100.00
46876;BME280;32866;50.160;14.768;2023-04-19T03:36:01;99759.00;;;8.16;100.00
46876;BME280;32866;50.160;14.768;2023-04-19T03:38:26;99730.38;;;8.01;100.00
46876;BME280;32866;50.160;14.768;2023-04-19T03:40:52;99753.38;;;8.27;100.00
46876;BME280;32866;50.160;14.768;2023-04-19T03:43:17;99742.00;;;8.05;100.00
46876;BME280;32866;50.160;14.768;2023-04-19T03:45:43;99745.44;;;8.09;100.00
46876;BME280;32866;50.160;14.768;2023-04-19T03:48:08;99742.63;;;8.16;100.00
46876;BME280;32866;50.160;14.768;2023-04-19T03:50:33;99700.91;;;7.89;100.00
46876;BME280;32866;50.160;14.768;2023-04-19T03:52:59;99708.63;;;7.94;100.00
46876;BME280;32866;50.160;14.768;2023-04-19T03:55:24;99726.66;;;7.88;100.00
46876;BME280;32866;50.160;14.768;2023-04-19T03:57:50;99733.81;;;8.05;100.00
46876;BME280;32866;50.160;14.768;2023-04-19T04:00:15;99699.88;;;7.79;100.00
46876;BME280;32866;50.160;14.768;2023-04-19T04:02:41;99725.03;;;8.17;100.00
46876;BME280;32866;50.160;14.768;2023-04-19T04:05:06;99728.63;;;8.14;100.00
46876;BME280;32866;50.160;14.768;2023-04-19T04:07:32;99689.59;;;7.90;100.00
46876;BME280;32866;50.160;14.768;2023-04-19T04:09:57;99712.38;;;8.04;100.00
46876;BME280;32866;50.160;14.768;2023-04-19T04:12:23;99730.31;;;8.05;100.00
46876;BME280;32866;50.160;14.768;2023-04-19T04:14:48;99733.09;;;8.01;100.00
46876;BME280;32866;50.160;14.768;2023-04-19T04:17:13;99731.25;;;7.94;100.00
46876;BME280;32866;50.160;14.768;2023-04-19T04:19:39;99729.69;;;7.93;100.00
46876;BME280;32866;50.160;14.768;2023-04-19T04:22:05;99729.00;;;7.89;100.00
46876;BME280;32866;50.160;14.768;2023-04-19T04:24:36;99737.72;;;8.04;100.00
46876;BME280;32866;50.160;14.768;2023-04-19T04:27:02;99729.69;;;7.93;100.00
46876;BME280;32866;50.160;14.768;2023-04-19T04:29:27;99711.66;;;7.72;100.00
46876;BME280;32866;50.160;14.768;2023-04-19T04:31:53;99699.56;;;7.73;100.00
46876;BME280;32866;50.160;14.768;2023-04-19T04:34:24;99728.19;;;7.89;100.00
46876;BME280;32866;50.160;14.768;2023-04-19T04:36:49;99727.72;;;7.94;100.00
46876;BME280;32866;50.160;14.768;2023-04-19T04:39:15;99729.69;;;7.93;100.00
46876;BME280;32866;50.160;14.768;2023-04-19T04:41:41;99724.06;;;8.04;100.00
46876;BME280;32866;50.160;14.768;2023-04-19T04:44:06;99697.19;;;7.75;100.00
46876;BME280;32866;50.160;14.768;2023-04-19T04:46:33;99721.81;;;7.99;100.00
46876;BME280;32866;50.160;14.768;2023-04-19T04:48:58;99700.28;;;7.77;100.00
46876;BME280;32866;50.160;14.768;2023-04-19T04:51:24;99722.69;;;7.92;100.00
46876;BME280;32866;50.160;14.768;2023-04-19T04:53:50;99694.41;;;7.79;100.00
46876;BME280;32866;50.160;14.768;2023-04-19T04:56:15;99710.28;;;7.88;100.00
46876;BME280;32866;50.160;14.768;2023-04-19T04:58:41;99727.53;;;8.08;100.00
46876;BME280;32866;50.160;14.768;2023-04-19T05:01:06;99722.22;;;7.97;100.00
46876;BME280;32866;50.160;14.768;2023-04-19T05:03:31;99675.00;;;7.73;100.00
46876;BME280;32866;50.160;14.768;2023-04-19T05:05:57;99717.28;;;7.89;100.00
46876;BME280;32866;50.160;14.768;2023-04-19T05:08:22;99700.25;;;7.81;100.00
46876;BME280;32866;50.160;14.768;2023-04-19T05:10:47;99717.97;;;7.96;100.00
46876;BME280;32866;50.160;14.768;2023-04-19T05:13:13;99726.09;;;8.00;100.00
46876;BME280;32866;50.160;14.768;2023-04-19T05:15:38;99723.16;;;7.87;100.00
46876;BME280;32866;50.160;14.768;2023-04-19T05:18:04;99728.88;;;7.96;100.00
46876;BME280;32866;50.160;14.768;2023-04-19T05:20:30;99721.41;;;8.01;100.00
46876;BME280;32866;50.160;14.768;2023-04-19T05:22:56;99702.97;;;7.81;100.00
46876;BME280;32866;50.160;14.768;2023-04-19T05:25:22;99726.44;;;8.02;100.00
46876;BME280;32866;50.160;14.768;2023-04-19T05:27:48;99725.81;;;7.91;100.00
46876;BME280;32866;50.160;14.768;2023-04-19T05:32:48;99717.91;;;8.00;100.00
46876;BME280;32866;50.160;14.768;2023-04-19T05:35:14;99717.03;;;8.07;100.00
46876;BME280;32866;50.160;14.768;2023-04-19T05:37:39;99725.34;;;7.96;100.00
46876;BME280;32866;50.160;14.768;2023-04-19T05:40:05;99721.31;;;8.08;100.00
46876;BME280;32866;50.160;14.768;2023-04-19T05:42:34;99728.81;;;8.00;100.00
46876;BME280;32866;50.160;14.768;2023-04-19T05:44:59;99721.34;;;8.04;100.00
46876;BME280;32866;50.160;14.768;2023-04-19T05:47:25;99726.41;;;8.06;100.00
46876;BME280;32866;50.160;14.768;2023-04-19T05:49:50;99722.78;;;8.12;100.00
46876;BME280;32866;50.160;14.768;2023-04-19T05:52:16;99698.50;;;7.94;100.00
46876;BME280;32866;50.160;14.768;2023-04-19T05:54:41;99728.81;;;8.27;100.00
46876;BME280;32866;50.160;14.768;2023-04-19T05:57:08;99722.59;;;8.27;100.00
46876;BME280;32866;50.160;14.768;2023-04-19T05:59:33;99727.69;;;8.25;100.00
46876;BME280;32866;50.160;14.768;2023-04-19T06:01:58;99689.78;;;8.03;100.00
46876;BME280;32866;50.160;14.768;2023-04-19T06:07:00;99728.50;;;8.22;100.00
46876;BME280;32866;50.160;14.768;2023-04-19T06:09:25;99703.91;;;7.98;100.00
46876;BME280;32866;50.160;14.768;2023-04-19T06:11:51;99718.13;;;8.13;100.00
46876;BME280;32866;50.160;14.768;2023-04-19T06:14:18;99721.41;;;8.01;100.00
46876;BME280;32866;50.160;14.768;2023-04-19T06:16:44;99734.13;;;8.11;100.00
46876;BME280;32866;50.160;14.768;2023-04-19T06:19:09;99702.28;;;8.01;100.00
46876;BME280;32866;50.160;14.768;2023-04-19T06:21:35;99738.66;;;8.21;100.00
46876;BME280;32866;50.160;14.768;2023-04-19T06:24:01;99735.47;;;7.99;100.00
46876;BME280;32866;50.160;14.768;2023-04-19T06:26:26;99734.56;;;7.78;100.00
46876;BME280;32866;50.160;14.768;2023-04-19T06:28:51;99725.94;;;7.84;100.00
46876;BME280;32866;50.160;14.768;2023-04-19T06:31:17;99736.38;;;7.89;100.00
46876;BME280;32866;50.160;14.768;2023-04-19T06:33:42;99702.00;;;7.64;100.00
46876;BME280;32866;50.160;14.768;2023-04-19T06:36:08;99741.59;;;7.79;100.00
46876;BME280;32866;50.160;14.768;2023-04-19T06:38:34;99721.22;;;7.88;100.00
46876;BME280;32866;50.160;14.768;2023-04-19T06:41:00;99710.06;;;7.75;100.00
46876;BME280;32866;50.160;14.768;2023-04-19T06:43:25;99710.81;;;8.06;100.00
46876;BME280;32866;50.160;14.768;2023-04-19T06:46:00;99715.00;;;8.11;100.00
46876;BME280;32866;50.160;14.768;2023-04-19T06:48:26;99684.66;;;7.82;100.00
46876;BME280;32866;50.160;14.768;2023-04-19T06:50:52;99713.75;;;8.43;100.00
46876;BME280;32866;50.160;14.768;2023-04-19T06:53:18;99717.81;;;8.58;100.00
46876;BME280;32866;50.160;14.768;2023-04-19T06:55:44;99714.56;;;8.67;100.00
46876;BME280;32866;50.160;14.768;2023-04-19T06:58:09;99700.78;;;8.50;100.00
46876;BME280;32866;50.160;14.768;2023-04-19T07:00:35;99672.88;;;8.83;100.00
46876;BME280;32866;50.160;14.768;2023-04-19T07:03:01;99714.31;;;9.21;100.00
46876;BME280;32866;50.160;14.768;2023-04-19T07:05:26;99720.19;;;9.00;100.00
46876;BME280;32866;50.160;14.768;2023-04-19T07:07:52;99709.63;;;9.02;100.00
46876;BME280;32866;50.160;14.768;2023-04-19T07:10:17;99708.28;;;9.50;100.00
46876;BME280;32866;50.160;14.768;2023-04-19T07:12:42;99705.19;;;10.54;100.00
46876;BME280;32866;50.160;14.768;2023-04-19T07:15:08;99700.41;;;10.87;100.00
46876;BME280;32866;50.160;14.768;2023-04-19T07:17:34;99692.28;;;11.55;100.00
46876;BME280;32866;50.160;14.768;2023-04-19T07:20:01;99696.91;;;11.58;100.00
46876;BME280;32866;50.160;14.768;2023-04-19T07:22:27;99700.50;;;12.45;100.00
46876;BME280;32866;50.160;14.768;2023-04-19T07:24:52;99711.88;;;13.26;100.00
46876;BME280;32866;50.160;14.768;2023-04-19T07:27:18;99712.72;;;12.44;100.00
46876;BME280;32866;50.160;14.768;2023-04-19T07:29:43;99681.72;;;10.69;100.00
46876;BME280;32866;50.160;14.768;2023-04-19T07:32:09;99690.47;;;9.62;100.00
46876;BME280;32866;50.160;14.768;2023-04-19T07:34:36;99708.00;;;9.04;100.00
46876;BME280;32866;50.160;14.768;2023-04-19T07:37:02;99707.25;;;9.04;100.00
46876;BME280;32866;50.160;14.768;2023-04-19T07:39:27;99709.25;;;9.00;100.00
46876;BME280;32866;50.160;14.768;2023-04-19T07:41:55;99671.44;;;8.78;100.00
46876;BME280;32866;50.160;14.768;2023-04-19T07:44:20;99686.31;;;9.17;100.00
46876;BME280;32866;50.160;14.768;2023-04-19T07:46:45;99717.31;;;11.15;100.00
46876;BME280;32866;50.160;14.768;2023-04-19T07:49:11;99717.78;;;13.15;100.00
46876;BME280;32866;50.160;14.768;2023-04-19T07:51:36;99700.50;;;14.50;100.00
46876;BME280;32866;50.160;14.768;2023-04-19T07:54:02;99704.88;;;16.10;100.00
46876;BME280;32866;50.160;14.768;2023-04-19T07:56:27;99682.31;;;17.14;90.16
46876;BME280;32866;50.160;14.768;2023-04-19T07:58:52;99687.94;;;17.79;78.64
46876;BME280;32866;50.160;14.768;2023-04-19T08:01:18;99687.13;;;17.28;75.58
46876;BME280;32866;50.160;14.768;2023-04-19T08:03:43;99675.84;;;15.72;73.83
46876;BME280;32866;50.160;14.768;2023-04-19T08:06:08;99680.81;;;14.20;79.28
46876;BME280;32866;50.160;14.768;2023-04-19T08:08:35;99677.66;;;13.49;84.22
46876;BME280;32866;50.160;14.768;2023-04-19T08:11:01;99677.72;;;13.14;82.69
46876;BME280;32866;50.160;14.768;2023-04-19T08:13:28;99626.91;;;14.09;81.20
46876;BME280;32866;50.160;14.768;2023-04-19T08:15:53;99665.25;;;15.09;73.59
46876;BME280;32866;50.160;14.768;2023-04-19T08:20:53;99645.34;;;14.96;68.66
46876;BME280;32866;50.160;14.768;2023-04-19T08:23:21;99646.50;;;14.12;65.79
46876;BME280;32866;50.160;14.768;2023-04-19T08:25:46;99660.84;;;14.65;62.62
46876;BME280;32866;50.160;14.768;2023-04-19T08:28:12;99658.03;;;15.82;55.51
46876;BME280;32866;50.160;14.768;2023-04-19T08:30:38;99659.09;;;16.57;54.67
46876;BME280;32866;50.160;14.768;2023-04-19T08:33:04;99660.47;;;15.28;50.37
46876;BME280;32866;50.160;14.768;2023-04-19T08:35:29;99666.94;;;15.25;49.87
46876;BME280;32866;50.160;14.768;2023-04-19T08:37:54;99639.09;;;15.47;51.00
46876;BME280;32866;50.160;14.768;2023-04-19T08:40:20;99661.66;;;15.88;45.55
46876;BME280;32866;50.160;14.768;2023-04-19T08:42:45;99654.84;;;15.99;46.89
46876;BME280;32866;50.160;14.768;2023-04-19T08:45:11;99635.88;;;15.91;45.13
46876;BME280;32866;50.160;14.768;2023-04-19T08:47:38;99643.63;;;15.17;44.08
46876;BME280;32866;50.160;14.768;2023-04-19T08:50:06;99640.94;;;16.17;45.71
46876;BME280;32866;50.160;14.768;2023-04-19T08:52:35;99648.13;;;16.48;44.59
46876;BME280;32866;50.160;14.768;2023-04-19T08:55:02;99645.59;;;17.28;41.15
46876;BME280;32866;50.160;14.768;2023-04-19T08:57:30;99644.44;;;18.00;41.45
46876;BME280;32866;50.160;14.768;2023-04-19T08:59:56;99643.72;;;17.70;36.90
46876;BME280;32866;50.160;14.768;2023-04-19T09:02:22;99636.53;;;17.13;37.93
46876;BME280;32866;50.160;14.768;2023-04-19T09:04:48;99634.41;;;16.29;37.59
46876;BME280;32866;50.160;14.768;2023-04-19T09:07:25;99631.94;;;16.70;38.88
46876;BME280;32866;50.160;14.768;2023-04-19T09:10:36;99624.63;;;16.67;39.44
46876;BME280;32866;50.160;14.768;2023-04-19T09:13:00;99631.13;;;17.54;37.39
46876;BME280;32866;50.160;14.768;2023-04-19T09:15:40;99625.09;;;17.70;36.84
46876;BME280;32866;50.160;14.768;2023-04-19T09:18:09;99619.59;;;17.91;37.89
46876;BME280;32866;50.160;14.768;2023-04-19T09:20:36;99588.06;;;18.76;37.09
46876;BME280;32866;50.160;14.768;2023-04-19T09:23:03;99624.50;;;19.10;34.82
46876;BME280;32866;50.160;14.768;2023-04-19T09:25:30;99621.28;;;18.44;35.80
46876;BME280;32866;50.160;14.768;2023-04-19T09:28:07;99609.88;;;18.63;34.35
46876;BME280;32866;50.160;14.768;2023-04-19T09:30:32;99607.81;;;18.58;36.83
46876;BME280;32866;50.160;14.768;2023-04-19T09:32:57;99604.22;;;17.90;35.63
46876;BME280;32866;50.160;14.768;2023-04-19T09:35:45;99595.31;;;17.86;37.29
46876;BME280;32866;50.160;14.768;2023-04-19T09:38:13;99595.47;;;18.38;36.97
46876;BME280;32866;50.160;14.768;2023-04-19T09:40:39;99602.78;;;18.62;37.68
46876;BME280;32866;50.160;14.768;2023-04-19T09:43:05;99608.66;;;19.16;35.73
46876;BME280;32866;50.160;14.768;2023-04-19T09:45:40;99607.09;;;19.79;34.83
46876;BME280;32866;50.160;14.768;2023-04-19T09:48:06;99598.47;;;20.20;36.42
46876;BME280;32866;50.160;14.768;2023-04-19T09:50:32;99592.06;;;20.80;33.60
46876;BME280;32866;50.160;14.768;2023-04-19T09:52:58;99604.53;;;21.07;34.25
46876;BME280;32866;50.160;14.768;2023-04-19T09:55:24;99593.63;;;21.03;32.62
46876;BME280;32866;50.160;14.768;2023-04-19T09:57:51;99582.88;;;21.98;32.77
46876;BME280;32866;50.160;14.768;2023-04-19T10:00:17;99564.75;;;21.40;33.03
46876;BME280;32866;50.160;14.768;2023-04-19T10:02:43;99598.41;;;21.65;33.07
46876;BME280;32866;50.160;14.768;2023-04-19T10:05:12;99553.03;;;21.70;33.79
46876;BME280;32866;50.160;14.768;2023-04-19T10:07:40;99572.59;;;21.30;34.00
46876;BME280;32866;50.160;14.768;2023-04-19T10:10:06;99597.63;;;20.74;36.07
46876;BME280;32866;50.160;14.768;2023-04-19T10:12:33;99592.00;;;20.51;35.59
46876;BME280;32866;50.160;14.768;2023-04-19T10:14:59;99574.00;;;18.12;38.63
46876;BME280;32866;50.160;14.768;2023-04-19T10:17:25;99601.94;;;20.04;37.81
46876;BME280;32866;50.160;14.768;2023-04-19T10:20:03;99564.66;;;19.84;37.10
46876;BME280;32866;50.160;14.768;2023-04-19T10:22:32;99572.81;;;19.93;35.36
46876;BME280;32866;50.160;14.768;2023-04-19T10:25:12;99580.72;;;19.63;37.65
46876;BME280;32866;50.160;14.768;2023-04-19T10:27:42;99604.88;;;20.43;36.51
46876;BME280;32866;50.160;14.768;2023-04-19T10:32:44;99600.19;;;21.23;38.02
46876;BME280;32866;50.160;14.768;2023-04-19T10:35:20;99597.06;;;20.58;36.24
46876;BME280;32866;50.160;14.768;2023-04-19T10:40:58;99601.41;;;19.99;38.51
46876;BME280;32866;50.160;14.768;2023-04-19T10:43:32;99579.94;;;19.25;39.29
46876;BME280;32866;50.160;14.768;2023-04-19T10:51:27;99612.19;;;18.03;40.95
46876;BME280;32866;50.160;14.768;2023-04-19T10:54:03;99629.91;;;19.19;39.06
46876;BME280;32866;50.160;14.768;2023-04-19T11:01:38;99628.34;;;15.92;44.73
46876;BME280;32866;50.160;14.768;2023-04-19T11:04:05;99630.84;;;13.90;49.34
46876;BME280;32866;50.160;14.768;2023-04-19T11:06:34;99640.94;;;13.93;52.26
46876;BME280;32866;50.160;14.768;2023-04-19T11:09:00;99626.91;;;15.20;47.90
46876;BME280;32866;50.160;14.768;2023-04-19T11:11:27;99637.56;;;16.61;44.93
46876;BME280;32866;50.160;14.768;2023-04-19T11:13:55;99630.41;;;17.23;43.40
46876;BME280;32866;50.160;14.768;2023-04-19T11:16:22;99637.28;;;17.43;42.81
46876;BME280;32866;50.160;14.768;2023-04-19T11:18:47;99629.72;;;17.14;42.74
46876;BME280;32866;50.160;14.768;2023-04-19T11:21:13;99618.59;;;18.29;39.36
46876;BME280;32866;50.160;14.768;2023-04-19T11:23:39;99624.25;;;18.61;40.23
46876;BME280;32866;50.160;14.768;2023-04-19T11:26:05;99613.59;;;19.70;39.59
46876;BME280;32866;50.160;14.768;2023-04-19T11:28:33;99592.94;;;17.58;40.09
46876;BME280;32866;50.160;14.768;2023-04-19T11:30:59;99607.56;;;19.08;40.18
46876;BME280;32866;50.160;14.768;2023-04-19T11:33:25;99589.91;;;19.05;39.05
46876;BME280;32866;50.160;14.768;2023-04-19T11:35:51;99592.59;;;19.00;39.53
46876;BME280;32866;50.160;14.768;2023-04-19T11:38:16;99622.59;;;19.91;37.43
46876;BME280;32866;50.160;14.768;2023-04-19T11:40:42;99589.56;;;18.98;39.09
46876;BME280;32866;50.160;14.768;2023-04-19T11:43:07;99593.59;;;20.04;38.10
46876;BME280;32866;50.160;14.768;2023-04-19T11:45:34;99623.56;;;19.19;39.04
46876;BME280;32866;50.160;14.768;2023-04-19T11:48:01;99623.00;;;18.83;39.73
46876;BME280;32866;50.160;14.768;2023-04-19T11:50:42;99623.31;;;18.90;38.89
46876;BME280;32866;50.160;14.768;2023-04-19T11:55:34;99606.09;;;16.74;42.36
46876;BME280;32866;50.160;14.768;2023-04-19T11:57:59;99631.72;;;17.43;42.51
46876;BME280;32866;50.160;14.768;2023-04-19T12:00:26;99640.06;;;17.78;40.92
46876;BME280;32866;50.160;14.768;2023-04-19T12:02:52;99643.66;;;17.34;40.48
46876;BME280;32866;50.160;14.768;2023-04-19T12:05:18;99625.16;;;15.75;42.42
46876;BME280;32866;50.160;14.768;2023-04-19T12:10:54;99649.63;;;17.62;43.49
46876;BME280;32866;50.160;14.768;2023-04-19T12:13:20;99640.50;;;17.12;42.59
46876;BME280;32866;50.160;14.768;2023-04-19T12:15:45;99650.63;;;15.36;45.70
46876;BME280;32866;50.160;14.768;2023-04-19T12:18:11;99643.34;;;13.72;48.98
46876;BME280;32866;50.160;14.768;2023-04-19T12:20:42;99625.72;;;15.98;47.93
46876;BME280;32866;50.160;14.768;2023-04-19T12:23:07;99618.25;;;15.89;45.74
46876;BME280;32866;50.160;14.768;2023-04-19T12:25:35;99624.84;;;13.82;48.02
46876;BME280;32866;50.160;14.768;2023-04-19T12:28:02;99648.97;;;12.93;52.35
46876;BME280;32866;50.160;14.768;2023-04-19T12:30:28;99646.38;;;13.34;52.21
46876;BME280;32866;50.160;14.768;2023-04-19T12:32:53;99614.75;;;13.16;52.74
46876;BME280;32866;50.160;14.768;2023-04-19T12:35:23;99632.31;;;12.18;54.26
46876;BME280;32866;50.160;14.768;2023-04-19T12:37:50;99638.94;;;12.55;53.20
46876;BME280;32866;50.160;14.768;2023-04-19T12:40:16;99625.34;;;12.39;53.59
46876;BME280;32866;50.160;14.768;2023-04-19T12:42:41;99629.47;;;11.83;56.53
46876;BME280;32866;50.160;14.768;2023-04-19T12:45:07;99636.81;;;12.24;56.38
46876;BME280;32866;50.160;14.768;2023-04-19T12:47:32;99611.13;;;12.05;56.78
46876;BME280;32866;50.160;14.768;2023-04-19T12:49:57;99630.78;;;12.17;55.81
46876;BME280;32866;50.160;14.768;2023-04-19T12:52:23;99579.59;;;11.84;56.65
46876;BME280;32866;50.160;14.768;2023-04-19T12:54:48;99589.88;;;12.32;56.55
46876;BME280;32866;50.160;14.768;2023-04-19T12:57:14;99615.00;;;12.65;57.01
46876;BME280;32866;50.160;14.768;2023-04-19T12:59:39;99597.22;;;14.32;52.20
46876;BME280;32866;50.160;14.768;2023-04-19T13:02:05;99597.28;;;13.82;52.62
46876;BME280;32866;50.160;14.768;2023-04-19T13:04:31;99618.59;;;12.97;53.21
46876;BME280;32866;50.160;14.768;2023-04-19T13:06:56;99610.91;;;13.36;52.04
46876;BME280;32866;50.160;14.768;2023-04-19T13:09:21;99604.00;;;13.09;52.58
46876;BME280;32866;50.160;14.768;2023-04-19T13:11:47;99604.56;;;14.17;53.41
46876;BME280;32866;50.160;14.768;2023-04-19T13:14:12;99607.03;;;14.33;52.04
46876;BME280;32866;50.160;14.768;2023-04-19T13:16:37;99590.84;;;13.35;51.86